sensor_id;sensor_type;location;lat;lon;timestamp;pressure;altitude;pressure_sealevel;temperature;humidity
21879;BME280;27908;42.708;23.278;2023-04-03T00:00:25;63219.34;;;6.94;99.16
21879;BME280;27908;42.708;23.278;2023-04-03T00:02:50;63167.94;;;6.72;99.45
21879;BME280;27908;42.708;23.278;2023-04-03T00:05:16;63177.09;;;6.75;99.79
21879;BME280;27908;42.708;23.278;2023-04-03T00:07:41;63133.41;;;6.63;100.00
21879;BME280;27908;42.708;23.278;2023-04-03T00:10:07;63159.81;;;6.69;100.00
21879;BME280;27908;42.708;23.278;2023-04-03T00:12:33;63152.19;;;6.66;100.00
21879;BME280;27908;42.708;23.278;2023-04-03T00:14:58;63143.50;;;6.60;100.00
21879;BME280;27908;42.708;23.278;2023-04-03T00:17:24;63187.03;;;6.61;100.00
21879;BME280;27908;42.708;23.278;2023-04-03T00:19:49;63125.09;;;6.42;100.00
21879;BME280;27908;42.708;23.278;2023-04-03T00:22:15;63127.06;;;6.37;100.00
21879;BME280;27908;42.708;23.278;2023-04-03T00:24:40;63148.19;;;6.28;100.00
21879;BME280;27908;42.708;23.278;2023-04-03T00:27:05;63085.03;;;6.36;100.00
21879;BME280;27908;42.708;23.278;2023-04-03T00:29:31;63132.75;;;6.06;100.00
21879;BME280;27908;42.708;23.278;2023-04-03T00:31:56;63110.94;;;6.02;100.00
21879;BME280;27908;42.708;23.278;2023-04-03T00:34:21;63072.84;;;5.87;100.00
21879;BME280;27908;42.708;23.278;2023-04-03T00:36:47;63054.69;;;5.89;100.00
21879;BME280;27908;42.708;23.278;2023-04-03T00:39:12;63053.72;;;5.96;100.00
21879;BME280;27908;42.708;23.278;2023-04-03T00:41:38;63074.44;;;5.94;100.00
21879;BME280;27908;42.708;23.278;2023-04-03T00:45:21;63066.41;;;5.98;100.00
21879;BME280;27908;42.708;23.278;2023-04-03T00:47:07;63082.56;;;5.97;100.00
21879;BME280;27908;42.708;23.278;2023-04-03T00:49:34;63072.81;;;5.85;100.00
21879;BME280;27908;42.708;23.278;2023-04-03T00:52:00;63059.16;;;5.84;100.00
21879;BME280;27908;42.708;23.278;2023-04-03T00:54:26;63049.53;;;5.82;100.00
21879;BME280;27908;42.708;23.278;2023-04-03T00:56:53;63060.66;;;5.83;100.00
21879;BME280;27908;42.708;23.278;2023-04-03T00:59:30;63028.34;;;5.44;100.00
21879;BME280;27908;42.708;23.278;2023-04-03T01:01:57;63008.78;;;5.57;100.00
21879;BME280;27908;42.708;23.278;2023-04-03T01:04:35;63043.69;;;5.59;100.00
21879;BME280;27908;42.708;23.278;2023-04-03T01:07:04;62997.53;;;5.44;100.00
21879;BME280;27908;42.708;23.278;2023-04-03T01:09:31;63059.28;;;5.52;100.00
21879;BME280;27908;42.708;23.278;2023-04-03T01:14:48;62978.78;;;5.38;100.00
21879;BME280;27908;42.708;23.278;2023-04-03T01:25:26;63011.16;;;5.42;100.00
21879;BME280;27908;42.708;23.278;2023-04-03T01:27:52;62965.19;;;5.44;100.00
21879;BME280;27908;42.708;23.278;2023-04-03T01:30:19;62968.31;;;5.08;100.00
21879;BME280;27908;42.708;23.278;2023-04-03T01:32:45;62952.59;;;5.03;100.00
21879;BME280;27908;42.708;23.278;2023-04-03T01:35:11;62971.91;;;5.14;100.00
21879;BME280;27908;42.708;23.278;2023-04-03T01:37:37;62950.63;;;5.08;100.00
21879;BME280;27908;42.708;23.278;2023-04-03T01:40:02;62970.28;;;5.03;100.00
21879;BME280;27908;42.708;23.278;2023-04-03T01:42:28;62961.88;;;5.19;100.00
21879;BME280;27908;42.708;23.278;2023-04-03T01:44:54;63048.00;;;5.02;100.00
21879;BME280;27908;42.708;23.278;2023-04-03T01:47:20;62931.53;;;5.14;100.00
21879;BME280;27908;42.708;23.278;2023-04-03T01:49:45;62997.66;;;5.12;100.00
21879;BME280;27908;42.708;23.278;2023-04-03T01:52:10;62969.22;;;4.99;100.00
21879;BME280;27908;42.708;23.278;2023-04-03T01:54:36;62958.78;;;5.14;100.00
21879;BME280;27908;42.708;23.278;2023-04-03T01:57:01;62951.19;;;5.11;100.00
21879;BME280;27908;42.708;23.278;2023-04-03T01:59:27;62932.41;;;5.03;100.00
21879;BME280;27908;42.708;23.278;2023-04-03T02:01:53;62956.19;;;5.09;100.00
21879;BME280;27908;42.708;23.278;2023-04-03T02:04:18;62967.22;;;5.02;100.00
21879;BME280;27908;42.708;23.278;2023-04-03T02:06:44;62949.69;;;5.12;100.00
21879;BME280;27908;42.708;23.278;2023-04-03T02:09:09;62944.56;;;5.05;100.00
21879;BME280;27908;42.708;23.278;2023-04-03T02:11:35;62932.03;;;4.71;100.00
21879;BME280;27908;42.708;23.278;2023-04-03T02:14:00;62929.25;;;4.93;100.00
21879;BME280;27908;42.708;23.278;2023-04-03T02:16:26;62975.81;;;5.01;100.00
21879;BME280;27908;42.708;23.278;2023-04-03T02:18:51;62966.16;;;4.96;100.00
21879;BME280;27908;42.708;23.278;2023-04-03T02:21:16;62949.47;;;4.95;100.00
21879;BME280;27908;42.708;23.278;2023-04-03T02:23:42;62955.88;;;4.82;100.00
21879;BME280;27908;42.708;23.278;2023-04-03T02:26:12;62919.47;;;4.76;100.00
21879;BME280;27908;42.708;23.278;2023-04-03T02:28:38;62974.09;;;4.85;100.00
21879;BME280;27908;42.708;23.278;2023-04-03T02:31:04;62969.56;;;4.85;100.00
21879;BME280;27908;42.708;23.278;2023-04-03T02:33:31;62936.66;;;4.78;100.00
21879;BME280;27908;42.708;23.278;2023-04-03T02:35:57;63071.78;;;4.69;100.00
21879;BME280;27908;42.708;23.278;2023-04-03T02:38:24;62891.66;;;4.71;100.00
21879;BME280;27908;42.708;23.278;2023-04-03T02:40:49;62946.75;;;4.78;100.00
21879;BME280;27908;42.708;23.278;2023-04-03T02:43:16;62906.13;;;4.58;100.00
21879;BME280;27908;42.708;23.278;2023-04-03T02:45:41;62898.47;;;4.51;100.00
21879;BME280;27908;42.708;23.278;2023-04-03T02:48:07;62853.50;;;4.44;100.00
21879;BME280;27908;42.708;23.278;2023-04-03T02:50:32;62909.13;;;4.56;100.00
21879;BME280;27908;42.708;23.278;2023-04-03T02:52:57;62917.16;;;4.52;100.00
21879;BME280;27908;42.708;23.278;2023-04-03T02:55:23;62916.53;;;4.44;100.00
21879;BME280;27908;42.708;23.278;2023-04-03T02:57:48;62909.94;;;4.40;100.00
21879;BME280;27908;42.708;23.278;2023-04-03T03:00:14;62857.09;;;4.08;100.00
21879;BME280;27908;42.708;23.278;2023-04-03T03:02:40;62852.97;;;3.99;100.00
21879;BME280;27908;42.708;23.278;2023-04-03T03:05:06;62812.81;;;4.14;100.00
21879;BME280;27908;42.708;23.278;2023-04-03T03:07:32;62860.75;;;4.17;100.00
21879;BME280;27908;42.708;23.278;2023-04-03T03:09:58;62870.28;;;4.14;100.00
21879;BME280;27908;42.708;23.278;2023-04-03T03:12:23;62849.00;;;4.05;100.00
21879;BME280;27908;42.708;23.278;2023-04-03T03:14:50;62875.38;;;4.19;100.00
21879;BME280;27908;42.708;23.278;2023-04-03T03:17:15;62852.16;;;4.16;100.00
21879;BME280;27908;42.708;23.278;2023-04-03T03:19:41;62844.03;;;4.10;100.00
21879;BME280;27908;42.708;23.278;2023-04-03T03:22:07;62854.13;;;4.13;100.00
21879;BME280;27908;42.708;23.278;2023-04-03T03:24:32;62842.66;;;3.82;100.00
21879;BME280;27908;42.708;23.278;2023-04-03T03:26:58;62765.06;;;3.83;100.00
21879;BME280;27908;42.708;23.278;2023-04-03T03:29:23;62836.09;;;3.81;100.00
21879;BME280;27908;42.708;23.278;2023-04-03T03:31:48;62815.84;;;3.73;100.00
21879;BME280;27908;42.708;23.278;2023-04-03T03:34:14;62832.72;;;3.92;100.00
21879;BME280;27908;42.708;23.278;2023-04-03T03:36:40;62830.09;;;3.85;100.00
21879;BME280;27908;42.708;23.278;2023-04-03T03:39:06;62851.13;;;3.73;100.00
21879;BME280;27908;42.708;23.278;2023-04-03T03:41:31;62780.50;;;3.66;100.00
21879;BME280;27908;42.708;23.278;2023-04-03T03:43:57;62797.69;;;3.73;100.00
21879;BME280;27908;42.708;23.278;2023-04-03T03:46:22;62802.34;;;3.82;100.00
21879;BME280;27908;42.708;23.278;2023-04-03T03:48:48;62840.59;;;3.78;100.00
21879;BME280;27908;42.708;23.278;2023-04-03T03:51:13;62804.50;;;3.91;100.00
21879;BME280;27908;42.708;23.278;2023-04-03T03:53:38;62822.47;;;3.77;100.00
21879;BME280;27908;42.708;23.278;2023-04-03T03:56:05;62803.09;;;4.00;100.00
21879;BME280;27908;42.708;23.278;2023-04-03T03:58:31;62851.47;;;4.00;100.00
21879;BME280;27908;42.708;23.278;2023-04-03T04:01:00;62836.78;;;3.96;100.00
21879;BME280;27908;42.708;23.278;2023-04-03T04:03:26;62858.41;;;3.92;100.00
21879;BME280;27908;42.708;23.278;2023-04-03T04:05:51;62864.41;;;3.88;100.00
21879;BME280;27908;42.708;23.278;2023-04-03T04:08:17;62837.31;;;3.96;100.00
21879;BME280;27908;42.708;23.278;2023-04-03T04:10:42;62819.69;;;3.99;100.00
21879;BME280;27908;42.708;23.278;2023-04-03T04:13:08;62879.31;;;4.10;100.00
21879;BME280;27908;42.708;23.278;2023-04-03T04:15:33;62878.22;;;4.04;100.00
21879;BME280;27908;42.708;23.278;2023-04-03T04:17:58;62832.25;;;3.96;100.00
21879;BME280;27908;42.708;23.278;2023-04-03T04:20:24;62835.25;;;3.94;100.00
21879;BME280;27908;42.708;23.278;2023-04-03T04:22:49;62825.09;;;3.87;100.00
21879;BME280;27908;42.708;23.278;2023-04-03T04:25:15;62801.97;;;3.91;100.00
21879;BME280;27908;42.708;23.278;2023-04-03T04:27:41;62842.28;;;3.91;100.00
21879;BME280;27908;42.708;23.278;2023-04-03T04:30:06;62898.03;;;4.14;100.00
21879;BME280;27908;42.708;23.278;2023-04-03T04:32:32;62866.72;;;4.10;100.00
21879;BME280;27908;42.708;23.278;2023-04-03T04:34:58;62843.31;;;3.95;100.00
21879;BME280;27908;42.708;23.278;2023-04-03T04:37:23;62830.56;;;3.83;100.00
21879;BME280;27908;42.708;23.278;2023-04-03T04:39:49;62840.94;;;4.05;100.00
21879;BME280;27908;42.708;23.278;2023-04-03T04:42:14;62828.28;;;4.00;100.00
21879;BME280;27908;42.708;23.278;2023-04-03T04:44:40;62835.44;;;4.09;100.00
21879;BME280;27908;42.708;23.278;2023-04-03T04:47:05;62853.59;;;4.10;100.00
21879;BME280;27908;42.708;23.278;2023-04-03T04:49:30;62815.81;;;4.12;100.00
21879;BME280;27908;42.708;23.278;2023-04-03T04:51:56;62879.53;;;4.27;100.00
21879;BME280;27908;42.708;23.278;2023-04-03T04:54:21;62891.28;;;4.39;100.00
21879;BME280;27908;42.708;23.278;2023-04-03T04:56:47;62922.13;;;4.47;100.00
21879;BME280;27908;42.708;23.278;2023-04-03T04:59:12;62891.88;;;4.47;100.00
21879;BME280;27908;42.708;23.278;2023-04-03T05:01:38;62939.06;;;4.70;100.00
21879;BME280;27908;42.708;23.278;2023-04-03T05:04:03;62904.25;;;4.68;100.00
21879;BME280;27908;42.708;23.278;2023-04-03T05:06:29;62953.84;;;4.80;100.00
21879;BME280;27908;42.708;23.278;2023-04-03T05:08:59;62949.34;;;4.83;100.00
21879;BME280;27908;42.708;23.278;2023-04-03T05:11:24;62961.72;;;5.07;100.00
21879;BME280;27908;42.708;23.278;2023-04-03T05:13:51;62984.03;;;5.14;100.00
21879;BME280;27908;42.708;23.278;2023-04-03T05:16:16;63001.22;;;5.16;100.00
21879;BME280;27908;42.708;23.278;2023-04-03T05:18:41;62980.47;;;5.10;100.00
21879;BME280;27908;42.708;23.278;2023-04-03T05:21:07;62998.91;;;5.33;100.00
21879;BME280;27908;42.708;23.278;2023-04-03T05:23:32;63016.63;;;5.35;100.00
21879;BME280;27908;42.708;23.278;2023-04-03T05:25:58;63035.13;;;5.61;100.00
21879;BME280;27908;42.708;23.278;2023-04-03T05:28:23;63041.31;;;5.71;100.00
21879;BME280;27908;42.708;23.278;2023-04-03T05:30:56;63051.03;;;5.81;100.00
21879;BME280;27908;42.708;23.278;2023-04-03T05:33:22;63075.41;;;5.90;100.00
21879;BME280;27908;42.708;23.278;2023-04-03T05:35:48;63072.50;;;6.02;100.00
21879;BME280;27908;42.708;23.278;2023-04-03T05:38:13;63079.16;;;6.08;100.00
21879;BME280;27908;42.708;23.278;2023-04-03T05:40:39;63076.13;;;6.07;100.00
21879;BME280;27908;42.708;23.278;2023-04-03T05:43:04;63089.72;;;6.03;100.00
21879;BME280;27908;42.708;23.278;2023-04-03T05:45:30;63058.50;;;6.12;100.00
21879;BME280;27908;42.708;23.278;2023-04-03T05:47:55;63086.81;;;6.13;100.00
21879;BME280;27908;42.708;23.278;2023-04-03T05:50:21;63092.47;;;6.21;100.00
21879;BME280;27908;42.708;23.278;2023-04-03T05:52:48;63150.25;;;6.33;100.00
21879;BME280;27908;42.708;23.278;2023-04-03T05:55:15;63104.25;;;6.35;100.00
21879;BME280;27908;42.708;23.278;2023-04-03T05:57:40;63108.25;;;6.29;100.00
21879;BME280;27908;42.708;23.278;2023-04-03T06:00:07;63105.31;;;6.40;100.00
21879;BME280;27908;42.708;23.278;2023-04-03T06:02:35;63099.75;;;6.40;100.00
21879;BME280;27908;42.708;23.278;2023-04-03T06:05:01;63107.03;;;6.57;100.00
21879;BME280;27908;42.708;23.278;2023-04-03T06:07:27;63139.91;;;6.54;100.00
21879;BME280;27908;42.708;23.278;2023-04-03T06:09:54;63159.19;;;6.61;100.00
21879;BME280;27908;42.708;23.278;2023-04-03T06:12:21;63173.13;;;6.81;100.00
21879;BME280;27908;42.708;23.278;2023-04-03T06:14:46;63139.75;;;6.86;100.00
21879;BME280;27908;42.708;23.278;2023-04-03T06:17:13;63194.75;;;7.14;100.00
21879;BME280;27908;42.708;23.278;2023-04-03T06:19:40;63225.31;;;7.29;100.00
21879;BME280;27908;42.708;23.278;2023-04-03T06:22:05;63261.13;;;7.56;100.00
21879;BME280;27908;42.708;23.278;2023-04-03T06:24:31;63263.78;;;7.69;100.00
21879;BME280;27908;42.708;23.278;2023-04-03T06:26:58;63292.78;;;7.77;100.00
21879;BME280;27908;42.708;23.278;2023-04-03T06:29:23;63300.94;;;7.82;100.00
21879;BME280;27908;42.708;23.278;2023-04-03T06:31:50;63354.53;;;8.10;100.00
21879;BME280;27908;42.708;23.278;2023-04-03T06:34:16;63322.53;;;8.08;100.00
21879;BME280;27908;42.708;23.278;2023-04-03T06:36:42;63365.28;;;8.17;99.13
21879;BME280;27908;42.708;23.278;2023-04-03T06:39:12;63340.94;;;8.21;98.54
21879;BME280;27908;42.708;23.278;2023-04-03T06:41:38;63348.75;;;8.36;98.20
21879;BME280;27908;42.708;23.278;2023-04-03T06:44:04;63380.78;;;8.42;98.28
21879;BME280;27908;42.708;23.278;2023-04-03T06:46:29;63384.91;;;8.46;96.62
21879;BME280;27908;42.708;23.278;2023-04-03T06:48:55;63365.34;;;8.25;97.04
21879;BME280;27908;42.708;23.278;2023-04-03T06:51:21;63375.13;;;8.37;98.18
21879;BME280;27908;42.708;23.278;2023-04-03T06:53:48;63377.31;;;8.51;97.85
21879;BME280;27908;42.708;23.278;2023-04-03T06:56:15;63403.38;;;8.64;96.45
21879;BME280;27908;42.708;23.278;2023-04-03T06:58:41;63392.88;;;8.81;96.37
21879;BME280;27908;42.708;23.278;2023-04-03T07:01:08;63434.13;;;8.88;94.06
21879;BME280;27908;42.708;23.278;2023-04-03T07:03:35;63483.00;;;8.96;93.76
21879;BME280;27908;42.708;23.278;2023-04-03T07:06:01;63436.41;;;9.15;93.81
21879;BME280;27908;42.708;23.278;2023-04-03T07:08:26;63512.84;;;9.30;92.69
21879;BME280;27908;42.708;23.278;2023-04-03T07:10:51;63495.78;;;9.53;92.41
21879;BME280;27908;42.708;23.278;2023-04-03T07:13:17;63542.72;;;9.66;91.05
21879;BME280;27908;42.708;23.278;2023-04-03T07:15:42;63530.22;;;9.88;90.82
21879;BME280;27908;42.708;23.278;2023-04-03T07:18:08;63607.16;;;9.93;91.20
21879;BME280;27908;42.708;23.278;2023-04-03T07:20:33;63628.59;;;9.99;89.33
21879;BME280;27908;42.708;23.278;2023-04-03T07:22:58;63640.09;;;10.25;89.15
21879;BME280;27908;42.708;23.278;2023-04-03T07:25:25;63618.78;;;10.34;85.65
21879;BME280;27908;42.708;23.278;2023-04-03T07:27:50;63635.81;;;10.04;85.68
21879;BME280;27908;42.708;23.278;2023-04-03T07:30:15;63618.66;;;10.19;86.85
21879;BME280;27908;42.708;23.278;2023-04-03T07:32:41;63562.25;;;9.85;87.36
21879;BME280;27908;42.708;23.278;2023-04-03T07:35:07;63625.19;;;10.11;89.84
21879;BME280;27908;42.708;23.278;2023-04-03T07:37:32;63628.44;;;10.31;87.49
21879;BME280;27908;42.708;23.278;2023-04-03T07:39:58;63652.00;;;10.44;84.66
21879;BME280;27908;42.708;23.278;2023-04-03T07:42:24;63665.81;;;10.50;83.03
21879;BME280;27908;42.708;23.278;2023-04-03T07:44:53;63677.78;;;10.71;83.52
21879;BME280;27908;42.708;23.278;2023-04-03T07:47:18;63695.31;;;10.93;83.03
21879;BME280;27908;42.708;23.278;2023-04-03T07:49:45;63748.91;;;10.98;82.51
21879;BME280;27908;42.708;23.278;2023-04-03T07:52:11;63748.00;;;11.09;82.06
21879;BME280;27908;42.708;23.278;2023-04-03T07:54:37;63760.94;;;11.26;79.95
21879;BME280;27908;42.708;23.278;2023-04-03T07:57:02;63736.88;;;11.18;80.41
21879;BME280;27908;42.708;23.278;2023-04-03T07:59:28;63738.22;;;11.00;80.75
21879;BME280;27908;42.708;23.278;2023-04-03T08:01:53;63681.97;;;10.82;80.80
21879;BME280;27908;42.708;23.278;2023-04-03T08:04:19;63733.59;;;10.95;81.33
21879;BME280;27908;42.708;23.278;2023-04-03T08:06:44;63701.94;;;10.92;81.68
21879;BME280;27908;42.708;23.278;2023-04-03T08:09:10;63738.78;;;11.05;81.44
21879;BME280;27908;42.708;23.278;2023-04-03T08:11:35;63711.75;;;11.03;80.97
21879;BME280;27908;42.708;23.278;2023-04-03T08:14:01;63748.69;;;11.24;79.96
21879;BME280;27908;42.708;23.278;2023-04-03T08:16:27;63790.59;;;11.33;80.79
21879;BME280;27908;42.708;23.278;2023-04-03T08:18:54;63805.69;;;11.59;76.51
21879;BME280;27908;42.708;23.278;2023-04-03T08:21:20;63758.41;;;11.26;76.84
21879;BME280;27908;42.708;23.278;2023-04-03T08:23:48;63837.78;;;11.53;78.06
21879;BME280;27908;42.708;23.278;2023-04-03T08:26:17;63835.69;;;11.95;77.25
21879;BME280;27908;42.708;23.278;2023-04-03T08:28:43;63882.34;;;12.13;75.49
21879;BME280;27908;42.708;23.278;2023-04-03T08:31:11;63918.41;;;12.43;73.42
21879;BME280;27908;42.708;23.278;2023-04-03T08:33:39;63981.50;;;12.61;74.39
21879;BME280;27908;42.708;23.278;2023-04-03T08:36:16;63959.50;;;12.62;73.38
21879;BME280;27908;42.708;23.278;2023-04-03T08:38:41;64006.38;;;12.90;72.65
21879;BME280;27908;42.708;23.278;2023-04-03T08:41:29;63991.44;;;12.83;69.88
21879;BME280;27908;42.708;23.278;2023-04-03T08:49:24;64035.28;;;13.17;69.32
21879;BME280;27908;42.708;23.278;2023-04-03T08:51:52;63992.69;;;13.04;69.48
21879;BME280;27908;42.708;23.278;2023-04-03T08:54:27;64029.19;;;13.21;71.24
21879;BME280;27908;42.708;23.278;2023-04-03T08:56:55;64096.44;;;13.39;71.54
21879;BME280;27908;42.708;23.278;2023-04-03T08:59:27;64113.50;;;13.53;68.68
21879;BME280;27908;42.708;23.278;2023-04-03T09:01:54;64093.19;;;13.73;66.79
21879;BME280;27908;42.708;23.278;2023-04-03T09:04:20;64110.47;;;13.60;69.75
21879;BME280;27908;42.708;23.278;2023-04-03T09:06:50;64087.34;;;13.52;69.16
21879;BME280;27908;42.708;23.278;2023-04-03T09:09:37;64135.28;;;13.81;68.26
21879;BME280;27908;42.708;23.278;2023-04-03T09:12:20;64181.56;;;13.96;67.87
21879;BME280;27908;42.708;23.278;2023-04-03T09:17:46;64175.69;;;14.20;65.04
21879;BME280;27908;42.708;23.278;2023-04-03T09:20:43;64194.19;;;14.27;64.44
21879;BME280;27908;42.708;23.278;2023-04-03T09:23:22;64204.03;;;14.34;65.08
21879;BME280;27908;42.708;23.278;2023-04-03T09:25:49;64248.03;;;14.25;64.91
21879;BME280;27908;42.708;23.278;2023-04-03T09:28:16;64170.41;;;14.07;63.49
21879;BME280;27908;42.708;23.278;2023-04-03T09:30:41;64218.31;;;14.28;63.77
21879;BME280;27908;42.708;23.278;2023-04-03T09:33:08;64230.69;;;14.35;64.49
21879;BME280;27908;42.708;23.278;2023-04-03T09:35:36;64247.28;;;14.54;64.91
21879;BME280;27908;42.708;23.278;2023-04-03T09:38:16;64212.00;;;14.13;62.66
21879;BME280;27908;42.708;23.278;2023-04-03T09:40:44;64122.88;;;13.69;64.25
21879;BME280;27908;42.708;23.278;2023-04-03T09:45:43;64135.91;;;13.91;66.38
21879;BME280;27908;42.708;23.278;2023-04-03T09:53:45;64239.63;;;14.56;64.49
21879;BME280;27908;42.708;23.278;2023-04-03T09:58:40;64276.28;;;14.79;62.51
21879;BME280;27908;42.708;23.278;2023-04-03T10:01:08;64317.88;;;14.82;61.87
21879;BME280;27908;42.708;23.278;2023-04-03T10:03:45;64317.41;;;14.86;63.19
21879;BME280;27908;42.708;23.278;2023-04-03T10:06:22;64352.69;;;15.17;60.65
21879;BME280;27908;42.708;23.278;2023-04-03T10:12:10;64341.88;;;15.17;61.74
21879;BME280;27908;42.708;23.278;2023-04-03T10:17:49;64315.38;;;14.87;60.73
21879;BME280;27908;42.708;23.278;2023-04-03T10:23:24;64319.50;;;14.88;59.78
21879;BME280;27908;42.708;23.278;2023-04-03T10:33:51;64175.50;;;14.05;62.60
21879;BME280;27908;42.708;23.278;2023-04-03T10:50:01;64202.19;;;14.06;63.05
21879;BME280;27908;42.708;23.278;2023-04-03T10:52:37;64206.44;;;14.20;62.96
21879;BME280;27908;42.708;23.278;2023-04-03T10:58:24;64188.94;;;14.15;62.28
21879;BME280;27908;42.708;23.278;2023-04-03T11:00:53;64180.72;;;14.12;63.21
21879;BME280;27908;42.708;23.278;2023-04-03T11:03:44;64221.34;;;14.22;62.82
21879;BME280;27908;42.708;23.278;2023-04-03T11:06:12;64171.44;;;14.06;62.87
21879;BME280;27908;42.708;23.278;2023-04-03T11:08:44;64188.94;;;14.13;63.19
21879;BME280;27908;42.708;23.278;2023-04-03T11:11:32;64206.75;;;14.03;63.71
21879;BME280;27908;42.708;23.278;2023-04-03T11:16:31;64148.69;;;13.89;66.71
21879;BME280;27908;42.708;23.278;2023-04-03T11:19:18;64154.34;;;13.89;69.43
21879;BME280;27908;42.708;23.278;2023-04-03T11:21:58;64154.09;;;13.65;71.39
21879;BME280;27908;42.708;23.278;2023-04-03T11:24:28;64100.66;;;13.51;75.28
21879;BME280;27908;42.708;23.278;2023-04-03T11:26:57;64102.53;;;13.35;76.14
21879;BME280;27908;42.708;23.278;2023-04-03T11:29:29;64042.47;;;13.17;76.53
21879;BME280;27908;42.708;23.278;2023-04-03T11:37:06;64001.75;;;12.90;87.44
21879;BME280;27908;42.708;23.278;2023-04-03T11:39:38;63976.06;;;12.78;88.46
21879;BME280;27908;42.708;23.278;2023-04-03T11:42:36;63919.09;;;12.60;84.28
21879;BME280;27908;42.708;23.278;2023-04-03T11:47:49;63931.38;;;12.11;89.70
21879;BME280;27908;42.708;23.278;2023-04-03T11:53:25;63905.38;;;12.18;95.13
21879;BME280;27908;42.708;23.278;2023-04-03T12:01:08;63900.63;;;12.04;96.72
21879;BME280;27908;42.708;23.278;2023-04-03T12:03:57;63868.00;;;12.09;96.08
21879;BME280;27908;42.708;23.278;2023-04-03T12:08:57;63878.59;;;11.95;97.84
21879;BME280;27908;42.708;23.278;2023-04-03T12:11:30;63877.66;;;12.04;99.92
21879;BME280;27908;42.708;23.278;2023-04-03T12:21:14;63815.88;;;11.54;100.00
21879;BME280;27908;42.708;23.278;2023-04-03T12:29:39;63792.03;;;11.22;100.00
21879;BME280;27908;42.708;23.278;2023-04-03T12:40:32;63698.16;;;10.71;100.00
21879;BME280;27908;42.708;23.278;2023-04-03T12:48:32;63659.66;;;10.46;100.00
21879;BME280;27908;42.708;23.278;2023-04-03T12:51:02;63669.66;;;10.27;100.00
21879;BME280;27908;42.708;23.278;2023-04-03T12:53:32;63643.25;;;10.35;100.00
21879;BME280;27908;42.708;23.278;2023-04-03T12:56:25;63604.91;;;10.18;100.00
21879;BME280;27908;42.708;23.278;2023-04-03T12:58:53;63637.91;;;10.11;100.00
21879;BME280;27908;42.708;23.278;2023-04-03T13:01:24;63662.28;;;10.05;100.00
21879;BME280;27908;42.708;23.278;2023-04-03T13:03:56;63619.63;;;10.15;100.00
21879;BME280;27908;42.708;23.278;2023-04-03T13:06:28;63601.72;;;10.08;100.00
21879;BME280;27908;42.708;23.278;2023-04-03T13:08:58;63588.84;;;9.95;100.00
21879;BME280;27908;42.708;23.278;2023-04-03T13:11:27;63602.59;;;9.94;100.00
21879;BME280;27908;42.708;23.278;2023-04-03T13:14:01;63584.16;;;9.86;100.00
21879;BME280;27908;42.708;23.278;2023-04-03T13:16:29;63601.38;;;9.78;100.00
21879;BME280;27908;42.708;23.278;2023-04-03T13:18:55;63572.84;;;9.75;100.00
21879;BME280;27908;42.708;23.278;2023-04-03T13:21:24;63545.81;;;9.69;100.00
21879;BME280;27908;42.708;23.278;2023-04-03T13:23:54;63556.94;;;9.62;100.00
21879;BME280;27908;42.708;23.278;2023-04-03T13:26:22;63517.00;;;9.39;100.00
21879;BME280;27908;42.708;23.278;2023-04-03T13:28:48;63562.44;;;9.53;100.00
21879;BME280;27908;42.708;23.278;2023-04-03T13:31:26;63550.75;;;9.57;100.00
21879;BME280;27908;42.708;23.278;2023-04-03T13:36:24;63566.97;;;9.50;100.00
21879;BME280;27908;42.708;23.278;2023-04-03T13:41:41;63509.34;;;9.36;100.00
21879;BME280;27908;42.708;23.278;2023-04-03T13:46:43;63520.53;;;9.35;100.00
21879;BME280;27908;42.708;23.278;2023-04-03T13:49:30;63506.75;;;9.31;100.00
21879;BME280;27908;42.708;23.278;2023-04-03T13:51:56;63535.19;;;9.27;100.00
21879;BME280;27908;42.708;23.278;2023-04-03T13:54:58;63506.59;;;9.17;100.00
21879;BME280;27908;42.708;23.278;2023-04-03T13:57:16;63479.75;;;9.25;100.00
21879;BME280;27908;42.708;23.278;2023-04-03T13:59:42;63511.25;;;9.23;100.00
21879;BME280;27908;42.708;23.278;2023-04-03T14:07:11;63475.66;;;9.23;100.00
21879;BME280;27908;42.708;23.278;2023-04-03T14:09:37;63473.44;;;9.07;100.00
21879;BME280;27908;42.708;23.278;2023-04-03T14:12:17;63497.47;;;9.20;100.00
21879;BME280;27908;42.708;23.278;2023-04-03T14:14:43;63493.44;;;9.21;100.00
21879;BME280;27908;42.708;23.278;2023-04-03T14:17:18;63504.09;;;9.22;100.00
21879;BME280;27908;42.708;23.278;2023-04-03T14:19:45;63537.69;;;9.24;100.00
21879;BME280;27908;42.708;23.278;2023-04-03T14:22:40;63471.53;;;9.20;100.00
21879;BME280;27908;42.708;23.278;2023-04-03T14:25:05;63518.72;;;9.11;100.00
21879;BME280;27908;42.708;23.278;2023-04-03T14:27:37;63505.06;;;9.18;100.00
21879;BME280;27908;42.708;23.278;2023-04-03T14:30:06;63512.25;;;9.24;100.00
21879;BME280;27908;42.708;23.278;2023-04-03T14:32:32;63486.66;;;9.07;100.00
21879;BME280;27908;42.708;23.278;2023-04-03T14:34:58;63476.13;;;9.19;100.00
21879;BME280;27908;42.708;23.278;2023-04-03T14:37:27;63502.53;;;9.18;100.00
21879;BME280;27908;42.708;23.278;2023-04-03T14:39:55;63512.72;;;9.20;100.00
21879;BME280;27908;42.708;23.278;2023-04-03T14:42:32;63511.72;;;9.19;100.00
21879;BME280;27908;42.708;23.278;2023-04-03T14:44:59;63460.81;;;9.14;100.00
21879;BME280;27908;42.708;23.278;2023-04-03T14:47:28;63518.19;;;9.08;100.00
21879;BME280;27908;42.708;23.278;2023-04-03T14:49:54;63461.38;;;8.73;100.00
21879;BME280;27908;42.708;23.278;2023-04-03T14:52:25;63498.13;;;8.87;100.00
21879;BME280;27908;42.708;23.278;2023-04-03T14:54:52;63471.81;;;8.98;100.00
21879;BME280;27908;42.708;23.278;2023-04-03T14:57:17;63483.50;;;8.97;100.00
21879;BME280;27908;42.708;23.278;2023-04-03T14:59:44;63430.59;;;8.92;100.00